Main page
METAR-TAF:

METAR-TAF

Airports :

Nouakchott–Oumtounsy International Airport

Nouakchott, Mauritania

latitude: 18-18-36N, longitude: 015-58-11W, elevation: 3 m

Current weather observation

The report was made 44 minutes ago, at 12:00 UTC
Wind 11 kt from the North/Northeast
Temperature 34°C
Humidity 25%
Pressure 1011 hPa
Visibility 10 km or more
no clouds below 1500 m and no cumulonimbus

METAR: GQNO 181200Z 03011KT CAVOK 34/11 Q1011 NOSIG

Time: 12:44 (12:44 UTC)

Forecast

The report was made 1 hour and 44 minutes ago, at 11:00 UTC
Forecast valid from 18 at 12 UTC to 19 at 18 UTC
Wind 12 kt from the North/Northeast
Visibility: 7000 m
Becoming
from 18 at 13 UTC to 18 at 15 UTC
Wind 12 kt from the North/Northwest

TAF: GQNO 181100Z 1812/1918 03012KT 7000 NSC BECMG 1813/1815 33012KT

Weather observations and forecasts of more than 4000 airports (METAR and TAF reports).

The available stations are represented by yellow and red dots on the map.

Hover mouse over dot to see the name of the station.

Then click to see weather observations and forecasts.

To change the map : click on the green buttons with a black cross to zoom in, on the green button with a dash to zoom out, or on the green arrows for adjacent maps.


METAR-TAF: